Time;durP1;ratioP1;P1;durP2;ratioP2;P2;SDS_P1;SDS_P2;PMS_P1;PMS_P2;Temp;Humidity;BMP_temperature;BMP_pressure;BME280_temperature;BME280_humidity;BME280_pressure;Samples;Min_cycle;Max_cycle;Signal;HPM_P1;HPM_P2
2022/10/13 00:00:45;;;;;;;9.38;4.60;;;;;;;11.23;100.00;99169.59;4973673;28;20424;-84
2022/10/13 00:03:11;;;;;;;17.88;4.82;;;;;;;11.28;100.00;99169.81;4958378;28;20027;-85
2022/10/13 00:05:42;;;;;;;19.02;5.43;;;;;;;11.28;100.00;99161.94;4960349;28;20041;-85
2022/10/13 00:08:11;;;;;;;18.52;5.90;;;;;;;11.23;100.00;99169.59;4974500;28;20034;-85
2022/10/13 00:10:38;;;;;;;15.52;5.47;;;;;;;11.18;100.00;99160.66;4957521;28;20039;-84
2022/10/13 00:13:06;;;;;;;13.38;6.40;;;;;;;11.02;100.00;99146.84;4974619;28;20493;-84
2022/10/13 00:15:38;;;;;;;16.00;5.60;;;;;;;10.79;100.00;99105.94;4958165;28;20423;-85
2022/10/13 00:18:06;;;;;;;15.68;5.68;;;;;;;11.13;100.00;99169.94;4972910;28;20500;-84
2022/10/13 00:20:32;;;;;;;16.95;5.80;;;;;;;11.18;100.00;99168.56;4956990;28;20117;-85
2022/10/13 00:23:00;;;;;;;16.40;6.07;;;;;;;11.23;100.00;99166.97;4958527;28;20062;-84
2022/10/13 00:25:29;;;;;;;21.52;6.57;;;;;;;11.22;100.00;99167.16;4958439;28;20034;-85
2022/10/13 00:27:58;;;;;;;14.32;5.80;;;;;;;11.07;100.00;99133.13;4974490;28;20396;-85
2022/10/13 00:30:33;;;;;;;19.20;6.10;;;;;;;11.20;100.00;99164.72;4973923;28;20054;-86
2022/10/13 00:32:59;;;;;;;18.30;6.15;;;;;;;11.18;100.00;99165.91;4973590;28;20077;-84
2022/10/13 00:35:26;;;;;;;14.52;6.57;;;;;;;11.09;100.00;99157.38;4958849;28;20049;-86
2022/10/13 00:37:52;;;;;;;16.73;6.05;;;;;;;11.02;100.00;99151.31;4960837;28;20404;-89
2022/10/13 00:40:19;;;;;;;25.05;6.60;;;;;;;11.03;100.00;99168.69;4978845;28;20370;-90
2022/10/13 00:42:44;;;;;;;19.55;6.85;;;;;;;11.02;100.00;99167.06;4965275;28;20026;-90
2022/10/13 00:45:20;;;;;;;24.63;7.15;;;;;;;10.98;100.00;99167.44;4966855;28;20053;-90
2022/10/13 00:47:52;;;;;;;20.02;6.80;;;;;;;10.72;100.00;99149.72;4964689;28;20034;-91
2022/10/13 00:50:22;;;;;;;16.77;6.53;;;;;;;10.82;100.00;99165.94;4982809;28;20085;-90
2022/10/13 00:52:50;;;;;;;18.92;6.88;;;;;;;10.69;100.00;99153.53;4967031;28;20653;-89
2022/10/13 00:55:20;;;;;;;18.90;7.28;;;;;;;10.65;100.00;99157.56;4982305;28;20090;-89
2022/10/13 00:57:53;;;;;;;20.45;7.75;;;;;;;10.47;100.00;99163.28;4984293;28;20088;-89
2022/10/13 01:04:23;;;;;;;26.27;8.70;;;;;;;10.27;100.00;99129.78;5000400;28;20033;-89
2022/10/13 01:11:13;;;;;;;25.45;8.10;;;;;;;10.45;100.00;99164.47;4920495;29;20035;-89
2022/10/13 01:13:39;;;;;;;21.65;8.05;;;;;;;10.43;100.00;99157.59;4919046;29;20047;-89
2022/10/13 01:16:38;;;;;;;29.05;8.20;;;;;;;10.38;100.00;99162.56;4983646;28;20479;-88
2022/10/13 01:19:07;;;;;;;22.60;7.47;;;;;;;10.24;100.00;99161.66;4958529;28;20416;-89
2022/10/13 01:21:56;;;;;;;22.77;8.32;;;;;;;10.10;100.00;99150.25;4977379;28;20706;-88
2022/10/13 01:24:39;;;;;;;20.15;7.68;;;;;;;10.14;100.00;99161.19;4974971;28;20031;-89
2022/10/13 01:27:13;;;;;;;12.93;5.57;;;;;;;10.02;100.00;99158.22;4975887;28;20433;-88
2022/10/13 01:30:10;;;;;;;26.98;7.50;;;;;;;10.10;100.00;99155.50;4976061;28;20122;-88
2022/10/13 01:32:39;;;;;;;21.70;7.05;;;;;;;10.13;100.00;99159.56;4976795;28;20043;-90
2022/10/13 01:35:19;;;;;;;17.90;5.93;;;;;;;10.17;100.00;99157.34;4976194;28;20035;-89
2022/10/13 01:37:55;;;;;;;15.63;6.35;;;;;;;10.09;100.00;99158.28;4961391;28;20031;-89
2022/10/13 01:40:26;;;;;;;14.60;5.43;;;;;;;10.06;100.00;99163.91;4979181;28;20069;-89
2022/10/13 01:43:09;;;;;;;16.27;6.72;;;;;;;10.15;100.00;99158.34;4961891;28;20026;-89
2022/10/13 01:45:49;;;;;;;;;;;;;;;10.12;100.00;99163.16;4975889;28;20089;-90
2022/10/13 01:48:17;;;;;;;12.55;4.78;;;;;;;10.12;100.00;99156.09;4975748;28;19926;-88
2022/10/13 01:50:43;;;;;;;17.05;5.38;;;;;;;10.22;100.00;99153.16;4979203;28;20026;-90
2022/10/13 01:53:11;;;;;;;10.95;5.07;;;;;;;10.18;100.00;99140.59;4962607;28;20027;-90
2022/10/13 01:55:48;;;;;;;13.88;4.88;;;;;;;10.33;100.00;99153.66;4962208;28;20049;-89
2022/10/13 01:58:14;;;;;;;19.75;4.40;;;;;;;10.02;100.00;99121.50;4961145;28;20033;-90
2022/10/13 02:00:52;;;;;;;21.00;4.80;;;;;;;10.18;100.00;99156.34;4961032;28;20054;-91
2022/10/13 02:03:54;;;;;;;10.95;4.45;;;;;;;10.31;100.00;99156.47;4976995;28;20030;-89
2022/10/13 02:06:29;;;;;;;16.40;4.40;;;;;;;10.27;100.00;99149.97;4953681;28;20489;-90
2022/10/13 02:08:58;;;;;;;15.40;4.25;;;;;;;10.31;100.00;99156.47;4960406;28;20035;-89
2022/10/13 02:11:26;;;;;;;14.93;4.53;;;;;;;10.27;100.00;99150.78;4978210;28;20039;-87
2022/10/13 02:14:02;;;;;;;16.45;4.00;;;;;;;10.32;100.00;99157.25;4961145;28;20525;-86
2022/10/13 02:16:32;;;;;;;20.40;4.18;;;;;;;10.23;100.00;99159.25;4959448;28;20543;-88
2022/10/13 02:18:59;;;;;;;13.82;3.60;;;;;;;10.32;100.00;99152.00;4958296;28;20442;-88
2022/10/13 02:21:25;;;;;;;15.48;3.70;;;;;;;10.24;100.00;99135.41;4974328;28;20039;-88
2022/10/13 02:23:51;;;;;;;11.98;3.53;;;;;;;10.43;100.00;99138.41;4973284;28;20389;-90
2022/10/13 02:26:17;;;;;;;10.75;3.15;;;;;;;10.54;100.00;99153.66;4975385;28;20039;-90
2022/10/13 02:28:43;;;;;;;15.80;3.65;;;;;;;10.63;100.00;99150.88;4977814;28;20041;-89
2022/10/13 02:31:09;;;;;;;16.58;3.33;;;;;;;10.55;100.00;99146.56;4976342;28;20031;-91
2022/10/13 02:33:35;;;;;;;10.93;3.00;;;;;;;10.71;100.00;99140.22;4976389;28;20050;-89
2022/10/13 02:36:00;;;;;;;11.68;3.78;;;;;;;10.80;100.00;99148.75;4975692;28;20061;-88
2022/10/13 02:38:26;;;;;;;11.02;3.05;;;;;;;10.82;100.00;99149.38;4959268;28;20405;-89
2022/10/13 02:40:53;;;;;;;12.82;3.10;;;;;;;10.75;100.00;99140.63;4959501;28;20038;-89
2022/10/13 02:43:19;;;;;;;14.65;2.90;;;;;;;10.70;100.00;99142.03;4974936;28;20031;-89
2022/10/13 02:45:44;;;;;;;7.82;2.50;;;;;;;10.85;100.00;99141.91;4975889;28;20042;-88
2022/10/13 02:48:10;;;;;;;12.63;3.00;;;;;;;10.77;100.00;99138.63;4958714;28;20041;-90
2022/10/13 02:50:36;;;;;;;8.75;3.42;;;;;;;10.83;100.00;99132.63;4975602;28;20030;-87
2022/10/13 02:53:02;;;;;;;13.25;3.45;;;;;;;10.76;100.00;99129.94;4975331;28;20023;-89
2022/10/13 02:55:27;;;;;;;14.45;3.00;;;;;;;10.74;100.00;99133.75;4974982;28;20031;-91
2022/10/13 02:57:53;;;;;;;8.52;2.33;;;;;;;10.82;100.00;99136.25;4977449;28;20038;-90
2022/10/13 03:00:19;;;;;;;10.35;2.70;;;;;;;10.80;100.00;99132.97;4978036;28;20039;-89
2022/10/13 03:02:45;;;;;;;10.88;2.85;;;;;;;10.86;100.00;99138.28;4978881;28;20027;-90
2022/10/13 03:05:10;;;;;;;9.52;2.47;;;;;;;10.94;100.00;99144.38;4961454;28;20037;-89
2022/10/13 03:07:36;;;;;;;9.75;2.72;;;;;;;10.93;100.00;99140.94;4978306;28;20061;-89
2022/10/13 03:10:03;;;;;;;9.18;2.50;;;;;;;10.89;100.00;99147.59;4975003;28;20022;-90
2022/10/13 03:12:29;;;;;;;13.25;3.78;;;;;;;10.81;100.00;99150.38;4974950;28;20503;-89
2022/10/13 03:14:55;;;;;;;9.40;2.38;;;;;;;10.78;100.00;99135.00;4960405;28;20031;-90
2022/10/13 03:17:20;;;;;;;9.85;2.45;;;;;;;10.90;100.00;99133.44;4976231;28;20110;-90
2022/10/13 03:19:46;;;;;;;8.95;3.13;;;;;;;11.00;100.00;99148.84;4977353;28;20049;-90
2022/10/13 03:22:14;;;;;;;10.57;2.85;;;;;;;10.86;100.00;99147.97;4961516;28;20033;-88
2022/10/13 03:24:40;;;;;;;10.77;2.40;;;;;;;10.77;100.00;99117.63;4978676;28;20544;-89
2022/10/13 03:27:06;;;;;;;7.53;2.63;;;;;;;10.80;100.00;99123.31;4960559;28;20062;-88
2022/10/13 03:29:32;;;;;;;12.80;2.45;;;;;;;10.71;100.00;99125.28;4975898;28;20113;-88
2022/10/13 03:31:58;;;;;;;6.47;2.67;;;;;;;10.79;100.00;99115.59;4975108;28;20085;-88
2022/10/13 03:34:24;;;;;;;10.77;2.40;;;;;;;10.75;100.00;99136.22;4974745;28;20039;-86
2022/10/13 03:36:49;;;;;;;9.75;2.60;;;;;;;10.81;100.00;99116.25;4975828;28;20069;-89
2022/10/13 03:39:15;;;;;;;13.35;3.00;;;;;;;10.68;100.00;99119.59;4958684;28;20031;-89
2022/10/13 03:41:41;;;;;;;10.57;2.15;;;;;;;10.78;100.00;99100.88;4974637;28;20069;-89
2022/10/13 03:44:11;;;;;;;7.55;2.65;;;;;;;10.86;100.00;99119.91;4973894;28;20027;-89
2022/10/13 03:46:37;;;;;;;9.32;2.20;;;;;;;10.84;100.00;99115.84;4975866;28;20034;-89
2022/10/13 03:49:02;;;;;;;9.93;2.20;;;;;;;10.87;100.00;99112.84;4975837;28;20031;-90
2022/10/13 03:51:28;;;;;;;8.88;2.20;;;;;;;10.95;100.00;99125.78;4977462;28;20397;-89
2022/10/13 03:53:53;;;;;;;8.52;2.60;;;;;;;10.70;100.00;99105.28;4960713;28;20115;-88
2022/10/13 03:56:24;;;;;;;4.78;2.10;;;;;;;10.99;100.00;99129.66;4960739;28;20034;-89
2022/10/13 03:58:56;;;;;;;8.00;2.60;;;;;;;10.74;100.00;99100.47;4976343;28;20054;-90
2022/10/13 04:01:24;;;;;;;6.90;2.50;;;;;;;10.90;100.00;99117.69;4977513;28;20027;-89
2022/10/13 04:03:52;;;;;;;6.10;1.88;;;;;;;10.97;100.00;99136.91;4962392;28;20058;-89
2022/10/13 04:06:22;;;;;;;7.60;2.10;;;;;;;10.93;100.00;99129.63;4962364;28;20037;-89
2022/10/13 04:08:57;;;;;;;10.38;2.22;;;;;;;10.91;100.00;99115.91;4961072;28;20027;-89
2022/10/13 04:11:23;;;;;;;12.88;2.92;;;;;;;10.89;100.00;99117.88;4977797;28;20027;-89
2022/10/13 04:13:49;;;;;;;8.77;2.55;;;;;;;10.96;100.00;99137.13;4960739;28;20449;-90
2022/10/13 04:16:20;;;;;;;8.73;2.05;;;;;;;11.00;100.00;99139.19;4964360;28;20042;-90
2022/10/13 04:18:55;;;;;;;10.13;2.50;;;;;;;10.84;100.00;99123.75;4982442;28;20489;-89
2022/10/13 04:21:21;;;;;;;16.02;2.97;;;;;;;10.92;100.00;99130.66;4999732;28;20038;-90
2022/10/13 04:23:47;;;;;;;7.43;2.22;;;;;;;10.89;100.00;99118.72;4981586;28;20033;-90
2022/10/13 04:26:21;;;;;;;8.85;2.35;;;;;;;10.86;100.00;99117.28;4966652;28;20038;-89
2022/10/13 04:28:49;;;;;;;11.18;2.65;;;;;;;10.89;100.00;99120.50;4983568;28;20034;-89
2022/10/13 04:31:15;;;;;;;9.27;2.83;;;;;;;10.77;100.00;99115.00;4984301;28;20041;-89
2022/10/13 04:33:41;;;;;;;8.50;2.17;;;;;;;10.86;100.00;99125.16;4983740;28;20039;-89
2022/10/13 04:36:09;;;;;;;11.23;2.17;;;;;;;10.85;100.00;99135.88;4967935;28;20026;-88
2022/10/13 04:38:35;;;;;;;8.57;2.53;;;;;;;10.75;100.00;99120.47;4982724;28;20073;-88
2022/10/13 04:41:03;;;;;;;7.15;2.63;;;;;;;10.71;100.00;99125.28;4983277;28;20026;-89
2022/10/13 04:43:28;;;;;;;4.30;1.85;;;;;;;10.75;100.00;99117.00;4967737;28;20037;-88
2022/10/13 04:46:00;;;;;;;9.20;2.67;;;;;;;10.79;100.00;99121.69;4983591;28;20117;-89
2022/10/13 04:48:25;;;;;;;8.65;2.67;;;;;;;10.82;100.00;99117.88;4983385;28;20065;-89
2022/10/13 04:51:02;;;;;;;8.48;2.10;;;;;;;10.86;100.00;99116.47;4983823;28;20034;-89
2022/10/13 04:53:28;;;;;;;10.40;1.92;;;;;;;10.79;100.00;99115.59;4982028;28;20041;-88
2022/10/13 04:55:55;;;;;;;7.68;2.05;;;;;;;10.78;100.00;99111.38;4965985;28;20477;-89
2022/10/13 04:58:23;;;;;;;7.57;2.42;;;;;;;10.70;100.00;99104.44;4982115;28;20037;-89
2022/10/13 05:00:49;;;;;;;9.38;2.45;;;;;;;10.82;100.00;99110.00;4966279;28;20472;-89
2022/10/13 05:03:14;;;;;;;7.60;2.53;;;;;;;10.76;100.00;99108.13;4966582;28;20034;-88
2022/10/13 05:05:41;;;;;;;6.80;2.15;;;;;;;10.79;100.00;99107.72;5000150;28;20539;-89
2022/10/13 05:08:06;;;;;;;9.68;2.45;;;;;;;10.78;100.00;99104.31;4983210;28;20035;-89
2022/10/13 05:10:32;;;;;;;11.95;2.55;;;;;;;10.86;100.00;99100.72;5000317;28;20488;-89
2022/10/13 05:12:57;;;;;;;14.27;2.42;;;;;;;10.83;100.00;99106.38;4983363;28;20039;-89
2022/10/13 05:15:23;;;;;;;8.65;3.30;;;;;;;10.75;100.00;99098.63;4983667;28;20034;-89
2022/10/13 05:17:49;;;;;;;7.80;2.05;;;;;;;10.79;100.00;99105.09;4983521;28;20500;-89
2022/10/13 05:20:16;;;;;;;6.75;2.58;;;;;;;10.74;100.00;99097.00;4967030;28;20046;-89
2022/10/13 05:22:42;;;;;;;6.18;1.75;;;;;;;10.77;100.00;99101.88;4968835;28;20038;-90
2022/10/13 05:25:08;;;;;;;7.78;2.17;;;;;;;10.71;100.00;99088.53;4982151;28;20045;-88
2022/10/13 05:27:33;;;;;;;4.05;2.05;;;;;;;10.79;100.00;99102.47;4963598;28;20129;-89
2022/10/13 05:29:59;;;;;;;7.35;2.17;;;;;;;10.83;100.00;99115.03;4980675;28;20084;-88
2022/10/13 05:32:24;;;;;;;7.47;2.40;;;;;;;10.75;100.00;99103.88;4965259;28;20035;-89
2022/10/13 05:34:50;;;;;;;12.02;2.55;;;;;;;10.59;100.00;99102.38;4965107;28;20034;-88
2022/10/13 05:37:20;;;;;;;7.53;2.03;;;;;;;10.63;100.00;99101.81;4999724;28;20030;-89
2022/10/13 05:39:47;;;;;;;7.32;2.20;;;;;;;10.63;100.00;99104.44;4982502;28;20115;-88
2022/10/13 05:42:12;;;;;;;10.50;2.47;;;;;;;10.56;100.00;99116.69;4980413;28;20481;-89
2022/10/13 05:44:39;;;;;;;6.43;2.40;;;;;;;10.61;100.00;99124.81;4980149;28;20065;-88
2022/10/13 05:47:04;;;;;;;8.77;2.63;;;;;;;10.30;100.00;99089.25;4981698;28;20042;-89
2022/10/13 05:49:30;;;;;;;9.32;2.70;;;;;;;10.32;100.00;99121.34;4965122;28;20027;-88
2022/10/13 05:52:02;;;;;;;13.43;2.53;;;;;;;10.26;100.00;99116.88;4980975;28;20373;-88
2022/10/13 05:54:35;;;;;;;13.50;2.88;;;;;;;10.13;100.00;99128.88;4964555;28;20035;-88
2022/10/13 05:57:32;;;;;;;6.55;2.40;;;;;;;10.05;100.00;99131.66;4981178;28;20030;-89
2022/10/13 06:00:10;;;;;;;4.57;2.25;;;;;;;9.98;100.00;99136.81;4966509;28;20043;-89
2022/10/13 06:02:50;;;;;;;9.85;2.47;;;;;;;9.88;100.00;99127.66;4979406;28;20442;-88
2022/10/13 06:05:22;;;;;;;5.63;2.20;;;;;;;9.74;100.00;99130.13;4963168;28;20046;-87
2022/10/13 06:07:48;;;;;;;5.60;2.35;;;;;;;9.51;100.00;99120.63;4980025;28;20061;-88
2022/10/13 06:10:14;;;;;;;9.10;3.22;;;;;;;9.48;100.00;99126.25;4979864;28;20034;-89
2022/10/13 06:12:40;;;;;;;8.75;3.00;;;;;;;9.49;100.00;99127.06;4964406;28;20366;-89
2022/10/13 06:15:06;;;;;;;6.05;2.40;;;;;;;9.42;100.00;99121.72;4965251;28;20029;-89
2022/10/13 06:17:38;;;;;;;8.30;2.65;;;;;;;9.46;100.00;99130.03;4981142;28;20038;-90
2022/10/13 06:20:05;;;;;;;6.97;2.22;;;;;;;9.39;100.00;99129.97;4967402;28;20493;-89
2022/10/13 06:22:33;;;;;;;7.35;3.10;;;;;;;9.38;100.00;99131.78;4985217;28;20036;-89
2022/10/13 06:24:58;;;;;;;8.82;2.80;;;;;;;9.08;100.00;99112.69;4984319;28;20034;-90
2022/10/13 06:27:27;;;;;;;4.25;2.40;;;;;;;9.14;100.00;99136.34;4969010;28;20396;-89
2022/10/13 06:29:53;;;;;;;15.57;3.63;;;;;;;8.84;100.00;99098.88;4965014;28;20481;-86
2022/10/13 06:40:32;;;;;;;6.43;2.40;;;;;;;9.02;100.00;99137.81;4935576;29;20051;-86
2022/10/13 06:43:32;;;;;;;9.68;2.33;;;;;;;9.09;100.00;99135.28;4917534;29;20035;-86
2022/10/13 06:46:04;;;;;;;9.43;2.20;;;;;;;8.48;100.00;99052.50;4943128;28;20077;-87
2022/10/13 06:48:42;;;;;;;11.15;2.42;;;;;;;8.49;100.00;99049.69;4961499;28;20038;-87
2022/10/13 06:51:42;;;;;;;4.65;1.98;;;;;;;8.93;100.00;99118.75;4962656;28;20041;-87
2022/10/13 06:54:15;;;;;;;10.55;2.40;;;;;;;8.73;100.00;99091.50;4977968;28;20039;-88
2022/10/13 06:56:42;;;;;;;10.18;2.58;;;;;;;8.62;100.00;99069.22;4978110;28;20057;-88
2022/10/13 06:59:08;;;;;;;5.50;2.33;;;;;;;8.49;100.00;99056.75;4963378;28;20042;-88
2022/10/13 07:01:35;;;;;;;8.70;2.08;;;;;;;8.61;100.00;99075.44;4964088;28;20163;-89
2022/10/13 07:04:00;;;;;;;11.18;2.63;;;;;;;8.66;100.00;99096.66;4980392;28;20030;-87
2022/10/13 07:06:26;;;;;;;10.77;2.15;;;;;;;8.60;100.00;99105.22;4962887;28;20055;-88
2022/10/13 07:08:52;;;;;;;8.40;2.30;;;;;;;8.59;100.00;99109.63;4961877;28;20031;-88
2022/10/13 07:11:17;;;;;;;5.43;2.10;;;;;;;8.48;100.00;99094.38;4979546;28;20038;-90
2022/10/13 07:13:44;;;;;;;3.83;1.70;;;;;;;8.47;100.00;99100.59;4963839;28;20173;-89
2022/10/13 07:16:10;;;;;;;5.13;2.05;;;;;;;8.48;100.00;99104.84;4980126;28;20029;-88
2022/10/13 07:18:36;;;;;;;3.95;2.13;;;;;;;8.24;100.00;99077.91;4962492;28;20123;-87
2022/10/13 07:21:02;;;;;;;6.93;1.85;;;;;;;8.37;100.00;99109.50;4964137;28;20499;-88
2022/10/13 07:23:28;;;;;;;5.50;2.45;;;;;;;8.30;100.00;99087.66;4964221;28;20030;-89
2022/10/13 07:25:56;;;;;;;4.50;1.90;;;;;;;8.50;100.00;99119.38;4980524;28;20093;-90
2022/10/13 07:28:25;;;;;;;8.10;2.55;;;;;;;8.57;100.00;99103.78;4979469;28;20038;-89
2022/10/13 07:30:51;;;;;;;6.13;1.95;;;;;;;8.56;100.00;99099.53;4963625;28;20377;-89
2022/10/13 07:33:18;;;;;;;7.05;2.10;;;;;;;8.65;100.00;99115.97;4978565;28;20041;-88
2022/10/13 07:35:44;;;;;;;6.63;2.10;;;;;;;8.43;100.00;99087.03;4978377;28;20053;-85
2022/10/13 07:38:11;;;;;;;4.05;2.08;;;;;;;8.50;100.00;99092.41;4962057;28;20473;-86
2022/10/13 07:40:37;;;;;;;8.32;3.08;;;;;;;8.60;100.00;99102.63;4977699;28;20038;-85
2022/10/13 07:43:02;;;;;;;8.52;2.30;;;;;;;8.55;100.00;99085.66;4977789;28;20029;-86
2022/10/13 07:45:29;;;;;;;8.25;3.05;;;;;;;8.47;100.00;99063.97;4962129;28;20037;-86
2022/10/13 07:47:55;;;;;;;7.28;2.25;;;;;;;8.64;100.00;99083.72;4995255;28;20026;-88
2022/10/13 07:50:21;;;;;;;8.98;2.20;;;;;;;8.67;100.00;99086.00;4977648;28;20400;-88
2022/10/13 07:52:48;;;;;;;6.00;2.05;;;;;;;8.92;100.00;99101.44;4995629;28;20489;-85
2022/10/13 07:55:13;;;;;;;10.23;2.67;;;;;;;8.97;100.00;99109.53;4995437;28;20086;-86
2022/10/13 07:57:39;;;;;;;6.95;2.33;;;;;;;9.15;100.00;99126.69;4977745;28;20038;-88
2022/10/13 08:00:05;;;;;;;8.02;2.92;;;;;;;9.20;100.00;99129.56;4995939;28;20390;-86
2022/10/13 08:02:31;;;;;;;8.43;2.42;;;;;;;9.22;100.00;99116.28;4978760;28;20473;-87
2022/10/13 08:05:02;;;;;;;4.85;2.38;;;;;;;9.03;100.00;99071.34;4995712;28;20032;-89
2022/10/13 08:07:28;;;;;;;6.43;2.30;;;;;;;9.13;100.00;99092.81;4978621;28;20042;-85
2022/10/13 08:09:53;;;;;;;13.68;2.92;;;;;;;9.29;100.00;99099.66;4976851;28;20547;-85
2022/10/13 08:12:19;;;;;;;9.82;2.60;;;;;;;9.49;100.00;99119.19;4979939;28;20089;-87
2022/10/13 08:14:50;;;;;;;7.10;2.42;;;;;;;9.43;100.00;99082.25;4975804;28;20042;-87
2022/10/13 08:17:16;;;;;;;8.13;3.03;;;;;;;9.27;100.00;99056.28;4960456;28;20484;-86
2022/10/13 08:19:42;;;;;;;4.57;2.03;;;;;;;9.22;100.00;99053.44;4975816;28;20057;-85
2022/10/13 08:22:09;;;;;;;8.60;2.30;;;;;;;9.41;100.00;99078.19;4959542;28;20484;-86
2022/10/13 08:24:35;;;;;;;12.93;3.17;;;;;;;9.73;100.00;99112.78;4960817;28;20122;-84
2022/10/13 08:27:01;;;;;;;8.52;2.42;;;;;;;9.53;100.00;99081.97;4959452;28;20113;-85
2022/10/13 08:29:27;;;;;;;6.32;3.15;;;;;;;9.75;100.00;99112.63;4959912;28;20060;-85
2022/10/13 08:31:55;;;;;;;12.25;2.58;;;;;;;9.56;100.00;99092.06;4993540;28;20026;-85
2022/10/13 08:34:22;;;;;;;8.93;2.63;;;;;;;9.53;100.00;99076.72;4960189;28;20031;-87
2022/10/13 08:36:51;;;;;;;15.70;3.08;;;;;;;9.68;100.00;99083.72;4959839;28;20032;-88
2022/10/13 08:39:21;;;;;;;10.02;2.58;;;;;;;9.84;100.00;99114.94;4959733;28;20035;-86
2022/10/13 08:41:48;;;;;;;9.55;2.78;;;;;;;9.71;100.00;99099.84;4960172;28;20042;-86
2022/10/13 08:44:20;;;;;;;7.18;2.63;;;;;;;10.03;100.00;99130.19;4959961;28;20133;-85
2022/10/13 08:47:02;;;;;;;9.07;2.83;;;;;;;9.63;100.00;99059.84;4963019;28;20042;-89
2022/10/13 08:49:29;;;;;;;5.38;1.83;;;;;;;9.60;100.00;99055.00;4976787;28;20034;-86
2022/10/13 08:51:57;;;;;;;10.57;2.50;;;;;;;9.70;100.00;99073.84;4977755;28;20069;-87
2022/10/13 08:54:25;;;;;;;8.48;2.63;;;;;;;10.01;100.00;99104.16;4963113;28;20042;-89
2022/10/13 08:56:51;;;;;;;7.35;3.05;;;;;;;10.03;100.00;99110.03;4963235;28;20479;-90
2022/10/13 08:59:20;;;;;;;7.50;2.72;;;;;;;10.12;100.00;99119.38;4977958;28;20384;-86
2022/10/13 09:01:53;;;;;;;6.70;2.80;;;;;;;10.27;100.00;99132.41;4964664;28;20030;-89
2022/10/13 09:04:35;;;;;;;14.18;3.38;;;;;;;10.31;100.00;99127.59;5005862;28;20379;-90
2022/10/13 09:07:06;;;;;;;7.85;2.95;;;;;;;10.34;100.00;99127.22;4973318;28;20182;-89
2022/10/13 09:09:32;;;;;;;9.00;3.05;;;;;;;10.31;100.00;99122.34;4973532;28;20074;-90
2022/10/13 09:11:57;;;;;;;11.32;2.55;;;;;;;10.39;100.00;99131.91;4966514;28;20034;-89
2022/10/13 09:14:30;;;;;;;12.18;3.05;;;;;;;10.39;100.00;99122.19;4999741;28;20381;-89
2022/10/13 09:17:13;;;;;;;8.38;2.47;;;;;;;10.45;100.00;99133.78;4965762;28;20045;-89
2022/10/13 09:19:39;;;;;;;8.33;2.90;;;;;;;10.28;100.00;99110.41;4982222;28;20133;-89
2022/10/13 09:22:25;;;;;;;8.07;3.25;;;;;;;10.64;100.00;99148.06;4965293;28;20030;-88
2022/10/13 09:25:21;;;;;;;13.05;2.50;;;;;;;10.68;100.00;99154.53;4980560;28;20039;-90
2022/10/13 09:27:59;;;;;;;8.52;2.83;;;;;;;10.67;100.00;99160.78;4968090;28;20042;-88
2022/10/13 09:30:37;;;;;;;7.65;2.60;;;;;;;10.54;100.00;99143.16;4997088;28;20034;-85
2022/10/13 09:33:10;;;;;;;7.55;2.60;;;;;;;10.70;100.00;99163.03;4997417;28;20100;-87
2022/10/13 09:35:54;;;;;;;9.77;2.88;;;;;;;10.79;100.00;99168.13;4997545;28;20098;-88
2022/10/13 09:38:23;;;;;;;7.32;2.95;;;;;;;10.78;100.00;99163.88;4982643;28;20037;-87
2022/10/13 09:41:11;;;;;;;14.63;3.42;;;;;;;10.83;100.00;99158.88;4983771;28;20483;-89
2022/10/13 09:43:41;;;;;;;12.68;3.22;;;;;;;10.69;100.00;99132.53;4982151;28;20094;-88
2022/10/13 09:46:33;;;;;;;9.82;2.75;;;;;;;10.60;100.00;99107.44;4981927;28;20069;-90
2022/10/13 09:49:04;;;;;;;9.80;2.92;;;;;;;10.74;100.00;99131.13;4998957;28;20042;-88
2022/10/13 09:51:40;;;;;;;11.10;3.40;;;;;;;10.90;100.00;99133.44;4965252;28;20041;-86
2022/10/13 09:54:27;;;;;;;6.88;2.90;;;;;;;10.80;100.00;99101.47;4964919;28;20485;-86
2022/10/13 09:57:00;;;;;;;10.43;3.20;;;;;;;11.12;100.00;99141.22;4981597;28;20034;-86
2022/10/13 09:59:35;;;;;;;5.60;1.88;;;;;;;11.09;100.00;99123.25;4965392;28;20096;-87
2022/10/13 10:02:35;;;;;;;11.43;2.70;;;;;;;11.06;100.00;99110.50;4965599;28;20041;-86
2022/10/13 10:05:20;;;;;;;8.43;2.95;;;;;;;11.03;100.00;99105.66;4948054;28;20050;-92
2022/10/13 10:07:46;;;;;;;11.57;3.13;;;;;;;11.18;100.00;99119.44;4965090;28;20034;-86
2022/10/13 10:10:25;;;;;;;9.43;3.15;;;;;;;11.10;100.00;99088.09;4964990;28;20038;-90
2022/10/13 10:12:51;;;;;;;18.15;3.40;;;;;;;11.16;100.00;99108.31;4964480;28;20080;-88
2022/10/13 10:15:25;;;;;;;16.15;3.80;;;;;;;11.18;100.00;99113.38;4965282;28;20491;-88
2022/10/13 10:18:02;;;;;;;11.18;2.60;;;;;;;11.24;100.00;99137.06;4965882;28;20506;-88
2022/10/13 10:20:41;;;;;;;7.50;2.47;;;;;;;11.21;100.00;99113.81;4980752;28;20410;-87
2022/10/13 10:23:28;;;;;;;9.63;2.90;;;;;;;11.39;100.00;99131.63;4964391;28;20558;-90
2022/10/13 10:26:00;;;;;;;13.50;2.80;;;;;;;11.32;100.00;99125.56;4956874;28;20093;-89
2022/10/13 10:28:31;;;;;;;9.65;2.90;;;;;;;11.51;100.00;99150.28;4980692;28;20030;-90
2022/10/13 10:31:09;;;;;;;11.40;3.05;;;;;;;11.40;100.00;99116.69;4979704;28;20037;-87
2022/10/13 10:34:06;;;;;;;10.70;2.75;;;;;;;11.60;100.00;99142.22;4978307;28;20035;-87
2022/10/13 10:36:56;;;;;;;12.80;3.40;;;;;;;11.57;100.00;99136.31;4995622;28;20087;-86
2022/10/13 10:39:28;;;;;;;7.47;2.65;;;;;;;11.61;100.00;99142.00;4961557;28;20092;-85
2022/10/13 10:42:33;;;;;;;11.23;3.13;;;;;;;11.62;100.00;99129.69;4960829;28;20046;-85
2022/10/13 10:45:02;;;;;;;8.50;3.15;;;;;;;11.22;100.00;99068.13;4958682;28;20540;-85
2022/10/13 10:47:38;;;;;;;10.23;3.05;;;;;;;11.60;100.00;99110.69;4992340;28;20479;-85
2022/10/13 10:50:06;;;;;;;12.40;2.90;;;;;;;11.70;100.00;99127.69;4974356;28;20038;-84
2022/10/13 10:53:06;;;;;;;10.35;3.05;;;;;;;11.80;100.00;99127.28;4992669;28;20038;-83
2022/10/13 10:55:41;;;;;;;8.38;2.80;;;;;;;11.70;100.00;99111.09;4971650;28;20121;-83
2022/10/13 10:58:18;;;;;;;8.20;2.53;;;;;;;11.78;100.00;99128.50;4959583;28;20373;-84
2022/10/13 11:01:18;;;;;;;10.02;2.97;;;;;;;11.84;100.00;99128.50;4975469;28;20038;-83
2022/10/13 11:03:59;;;;;;;8.73;3.30;;;;;;;11.88;100.00;99117.59;4972689;28;20548;-84
2022/10/13 11:06:35;;;;;;;9.10;2.85;;;;;;;11.92;100.00;99116.16;4992451;28;20535;-83
2022/10/13 11:09:01;;;;;;;11.40;3.50;;;;;;;11.94;100.00;99128.13;4958024;28;20114;-83
2022/10/13 11:11:30;;;;;;;13.85;3.72;;;;;;;11.98;100.00;99123.25;4974679;28;20065;-84
2022/10/13 11:14:02;;;;;;;9.70;4.22;;;;;;;12.04;100.00;99117.22;4974967;28;20027;-83
2022/10/13 11:16:39;;;;;;;11.68;3.38;;;;;;;11.99;100.00;99093.31;4974512;28;20104;-83
2022/10/13 11:19:31;;;;;;;10.52;3.53;;;;;;;12.17;100.00;99111.16;4973636;28;21178;-81
2022/10/13 11:21:57;;;;;;;17.17;4.32;;;;;;;12.14;100.00;99096.56;4991740;28;20530;-84
2022/10/13 11:24:38;;;;;;;11.23;4.10;;;;;;;12.24;100.00;99095.34;4974227;28;20121;-84
2022/10/13 11:27:06;;;;;;;9.75;3.35;;;;;;;12.26;100.00;99085.44;4959462;28;20480;-84
2022/10/13 11:29:52;;;;;;;13.20;3.63;;;;;;;12.27;100.00;99089.69;4975496;28;20034;-84
2022/10/13 11:32:43;;;;;;;11.65;3.30;;;;;;;12.22;100.00;99076.34;4991130;28;20495;-83
2022/10/13 11:35:09;;;;;;;9.95;2.80;;;;;;;12.30;100.00;99073.47;4957074;28;20812;-82
2022/10/13 11:37:56;;;;;;;9.88;3.00;;;;;;;12.38;100.00;99065.38;4970926;28;20038;-83
2022/10/13 11:40:43;;;;;;;7.80;3.35;;;;;;;12.43;100.00;99056.84;4956758;28;20030;-83
2022/10/13 11:43:11;;;;;;;10.30;2.88;;;;;;;12.42;100.00;99056.06;4974300;28;20034;-83
2022/10/13 11:46:02;;;;;;;7.95;2.33;;;;;;;12.48;100.00;99056.22;4991293;28;20034;-83
2022/10/13 11:48:49;;;;;;;8.85;3.55;;;;;;;12.50;100.00;99057.66;4972838;28;20030;-82
2022/10/13 11:51:31;;;;;;;8.98;2.67;;;;;;;12.50;100.00;99041.84;4959061;28;20030;-82
2022/10/13 11:54:38;;;;;;;14.15;3.72;;;;;;;12.56;100.00;99048.94;4969685;28;20509;-83
2022/10/13 11:57:18;;;;;;;12.07;3.38;;;;;;;12.52;100.00;99021.41;4937522;28;20046;-83
2022/10/13 11:59:50;;;;;;;13.60;4.40;;;;;;;12.78;100.00;99048.66;4936925;28;20069;-84